Time;durP1;ratioP1;P1;durP2;ratioP2;P2;SDS_P1;SDS_P2;PMS_P1;PMS_P2;Temp;Humidity;BMP_temperature;BMP_pressure;BME280_temperature;BME280_humidity;BME280_pressure;Samples;Min_cycle;Max_cycle;Signal;HPM_P1;HPM_P2
2022/03/27 00:01:18;;;;;;;20.90;15.73;;;;;;;8.50;41.99;93679.81;5049234;28;20193;-75
2022/03/27 00:03:44;;;;;;;24.40;17.07;;;;;;;8.42;42.79;93695.84;5047992;28;20222;-75
2022/03/27 00:06:10;;;;;;;20.00;17.27;;;;;;;8.19;43.68;93679.34;5049880;28;20181;-76
2022/03/27 00:08:35;;;;;;;24.97;17.10;;;;;;;7.96;44.85;93686.50;5048050;28;20252;-76
2022/03/27 00:13:45;;;;;;;26.53;17.50;;;;;;;7.63;46.88;93689.06;5049899;28;20296;-76
2022/03/27 00:16:11;;;;;;;25.93;17.77;;;;;;;7.49;46.53;93685.97;5049586;28;20242;-76
2022/03/27 00:18:37;;;;;;;29.50;18.13;;;;;;;7.30;47.60;93681.97;5046431;28;20237;-76
2022/03/27 00:21:03;;;;;;;22.07;17.07;;;;;;;7.09;47.95;93667.06;5049779;28;20196;-76
2022/03/27 00:23:29;;;;;;;31.80;17.10;;;;;;;7.12;48.08;93669.19;5048558;28;20244;-76
2022/03/27 00:25:54;;;;;;;25.80;16.27;;;;;;;7.01;48.82;93659.63;5048929;28;20194;-76
2022/03/27 00:28:20;;;;;;;23.43;16.13;;;;;;;7.12;48.81;93669.19;5048890;28;20216;-75
2022/03/27 00:30:46;;;;;;;17.70;15.83;;;;;;;7.20;49.07;93666.22;5049337;28;20182;-76
2022/03/27 00:33:12;;;;;;;19.27;14.43;;;;;;;7.29;47.71;93667.44;5048021;28;20212;-75
2022/03/27 00:35:37;;;;;;;14.53;13.23;;;;;;;7.73;45.13;93652.88;5047493;28;20190;-76
2022/03/27 00:38:03;;;;;;;19.30;14.37;;;;;;;7.81;44.27;93642.84;5048603;28;20217;-76
2022/03/27 00:40:28;;;;;;;16.77;15.27;;;;;;;8.09;43.80;93653.16;5047705;28;20264;-76
2022/03/27 00:42:54;;;;;;;15.53;13.60;;;;;;;8.18;43.70;93649.16;5049649;28;20193;-76
2022/03/27 00:45:19;;;;;;;17.70;14.37;;;;;;;8.39;42.71;93646.88;5048497;28;20230;-76
2022/03/27 00:47:45;;;;;;;14.97;13.60;;;;;;;8.28;43.05;93632.16;5049458;28;20193;-76
2022/03/27 00:50:10;;;;;;;15.17;13.57;;;;;;;8.22;43.14;93630.47;5046605;28;20230;-76
2022/03/27 00:52:36;;;;;;;21.13;14.80;;;;;;;8.31;43.00;93627.25;5048915;28;20201;-76
2022/03/27 00:55:02;;;;;;;20.40;15.43;;;;;;;8.16;42.60;93624.41;5048212;28;20230;-76
2022/03/27 00:57:27;;;;;;;19.97;15.77;;;;;;;8.22;43.25;93643.47;5047753;28;20206;-76
2022/03/27 00:59:53;;;;;;;16.57;14.30;;;;;;;8.18;43.19;93643.97;5048520;28;20229;-76
2022/03/27 01:02:21;;;;;;;14.90;12.73;;;;;;;8.32;42.40;93641.03;5048463;28;20189;-76
2022/03/27 01:04:46;;;;;;;18.30;14.77;;;;;;;8.46;42.20;93631.88;5046463;28;20239;-76
2022/03/27 01:07:18;;;;;;;14.63;12.57;;;;;;;8.50;42.18;93636.34;5048197;28;20221;-76
2022/03/27 01:09:48;;;;;;;16.20;14.60;;;;;;;8.60;41.77;93630.50;5048501;28;20248;-76
2022/03/27 01:12:22;;;;;;;16.60;13.20;;;;;;;8.64;41.94;93626.41;5051566;28;20178;-76
2022/03/27 01:14:49;;;;;;;20.70;12.60;;;;;;;8.70;41.91;93617.63;5052179;28;20287;-76
2022/03/27 01:17:17;;;;;;;15.63;14.13;;;;;;;8.80;41.76;93625.53;5052553;28;20217;-76
2022/03/27 01:19:54;;;;;;;18.50;14.00;;;;;;;8.94;41.68;93617.13;5051807;28;20230;-75
2022/03/27 01:22:20;;;;;;;16.10;14.17;;;;;;;8.82;41.47;93624.28;5052357;28;20186;-76
2022/03/27 01:24:47;;;;;;;22.17;14.23;;;;;;;8.68;41.96;93612.66;5048067;28;20221;-77
2022/03/27 01:27:13;;;;;;;19.87;14.17;;;;;;;8.87;41.32;93620.94;5052129;28;20229;-76
2022/03/27 01:29:39;;;;;;;16.50;14.70;;;;;;;8.68;41.73;93617.06;5051317;28;20292;-78
2022/03/27 01:32:08;;;;;;;19.80;13.67;;;;;;;8.81;42.21;93622.69;5052045;28;20265;-76
2022/03/27 01:34:34;;;;;;;19.60;14.67;;;;;;;8.63;42.12;93619.59;5050442;28;20232;-76
2022/03/27 01:37:08;;;;;;;17.37;14.50;;;;;;;8.38;42.85;93614.06;5052009;28;20280;-76
2022/03/27 01:39:34;;;;;;;21.37;15.50;;;;;;;8.34;42.39;93618.97;5049612;28;20707;-75
2022/03/27 01:42:00;;;;;;;23.33;16.47;;;;;;;7.94;42.96;93580.16;5052795;28;20224;-76
2022/03/27 01:44:26;;;;;;;18.03;15.40;;;;;;;8.11;43.48;93617.31;5052385;28;20253;-76
2022/03/27 01:46:52;;;;;;;23.77;15.97;;;;;;;7.96;44.24;93613.72;5053071;28;20182;-76
2022/03/27 01:49:19;;;;;;;21.53;16.50;;;;;;;7.75;44.23;93614.44;5052309;28;20305;-76
2022/03/27 01:51:45;;;;;;;22.27;17.17;;;;;;;7.61;44.49;93611.34;5051868;28;20193;-76
2022/03/27 01:54:11;;;;;;;24.07;16.50;;;;;;;7.15;46.39;93619.38;5043244;28;20225;-76
2022/03/27 01:56:38;;;;;;;26.03;15.63;;;;;;;6.88;47.35;93623.53;5052169;28;20190;-75
2022/03/27 01:59:05;;;;;;;21.70;17.67;;;;;;;6.89;47.88;93626.94;5050008;28;20245;-75
2022/03/27 02:01:31;;;;;;;25.70;18.50;;;;;;;6.67;48.41;93619.00;5052198;28;20194;-75
2022/03/27 02:03:57;;;;;;;27.80;15.50;;;;;;;6.60;49.03;93618.31;5051595;28;20222;-76
2022/03/27 02:06:23;;;;;;;23.43;16.57;;;;;;;6.60;49.92;93623.50;5048929;28;20246;-75
2022/03/27 02:08:51;;;;;;;32.03;18.97;;;;;;;6.71;49.57;93622.69;5051169;28;20262;-76
2022/03/27 02:11:16;;;;;;;23.47;16.57;;;;;;;6.27;50.48;93612.97;5052200;28;21088;-75
2022/03/27 02:13:42;;;;;;;25.93;17.83;;;;;;;6.46;50.63;93617.00;5051094;28;20230;-76
2022/03/27 02:16:08;;;;;;;24.50;16.10;;;;;;;6.22;50.53;93579.97;5051400;28;20187;-76
2022/03/27 02:18:34;;;;;;;27.13;16.97;;;;;;;6.34;50.63;93609.25;5048906;28;20230;-76
2022/03/27 02:21:00;;;;;;;25.93;15.63;;;;;;;6.27;51.95;93610.41;5050716;28;20277;-75
2022/03/27 02:23:27;;;;;;;18.37;16.10;;;;;;;6.36;50.61;93611.63;5051872;28;20253;-75
2022/03/27 02:25:53;;;;;;;28.00;17.77;;;;;;;5.99;52.43;93625.84;5043948;28;20197;-75
2022/03/27 02:28:18;;;;;;;22.57;16.37;;;;;;;6.10;51.37;93622.47;5051429;28;20198;-75
2022/03/27 02:30:45;;;;;;;20.00;16.47;;;;;;;5.77;52.15;93622.19;5050956;28;20210;-74
2022/03/27 02:33:10;;;;;;;21.63;16.00;;;;;;;5.86;52.15;93626.84;5050684;28;20198;-75
2022/03/27 02:35:36;;;;;;;22.93;16.87;;;;;;;5.58;52.47;93618.91;5049474;28;20245;-75
2022/03/27 02:38:05;;;;;;;30.43;17.30;;;;;;;5.27;53.81;93613.22;5051592;28;20217;-75
2022/03/27 02:40:32;;;;;;;23.03;17.37;;;;;;;5.24;54.22;93616.25;5050152;28;20209;-74
2022/03/27 02:42:59;;;;;;;26.53;16.20;;;;;;;5.23;54.07;93604.31;5042635;28;20198;-75
2022/03/27 02:45:26;;;;;;;24.37;15.97;;;;;;;4.96;54.72;93609.84;5051768;28;20241;-76
2022/03/27 02:47:52;;;;;;;22.00;16.63;;;;;;;5.24;54.45;93627.41;5050836;28;20763;-75
2022/03/27 02:50:18;;;;;;;19.77;16.87;;;;;;;5.29;54.39;93608.59;5051102;28;20349;-75
2022/03/27 02:52:43;;;;;;;23.03;17.57;;;;;;;5.25;55.61;93623.00;5051114;28;20194;-76
2022/03/27 02:55:09;;;;;;;37.63;17.10;;;;;;;5.28;55.05;93632.91;5048744;28;20234;-75
2022/03/27 02:57:34;;;;;;;21.80;17.07;;;;;;;5.41;54.02;93623.16;5049834;28;20270;-76
2022/03/27 03:00:00;;;;;;;25.07;16.20;;;;;;;5.34;54.96;93632.81;5050024;28;20264;-75
2022/03/27 03:02:26;;;;;;;27.97;18.47;;;;;;;5.23;55.08;93645.75;5048222;28;20190;-75
2022/03/27 03:04:52;;;;;;;27.03;16.67;;;;;;;5.48;54.34;93648.97;5050201;28;20238;-76
2022/03/27 03:07:18;;;;;;;21.23;16.07;;;;;;;5.39;55.26;93645.09;5050356;28;20198;-76
2022/03/27 03:09:44;;;;;;;26.50;20.60;;;;;;;5.44;54.62;93650.41;5050408;28;20230;-76
2022/03/27 03:12:10;;;;;;;28.27;17.53;;;;;;;5.22;55.58;93654.50;5047614;28;20768;-75
2022/03/27 03:14:36;;;;;;;23.90;17.53;;;;;;;5.14;55.21;93644.47;5050493;28;20234;-76
2022/03/27 03:17:04;;;;;;;25.87;18.03;;;;;;;4.82;56.13;93651.66;5050292;28;20236;-75
2022/03/27 03:19:30;;;;;;;20.47;18.03;;;;;;;4.90;55.90;93641.00;5048915;28;20226;-75
2022/03/27 03:21:56;;;;;;;27.40;19.40;;;;;;;4.86;56.58;93645.81;5048894;28;20186;-75
2022/03/27 03:24:23;;;;;;;37.47;21.13;;;;;;;4.70;56.10;93620.53;5050299;28;20222;-75
2022/03/27 03:26:49;;;;;;;34.50;19.93;;;;;;;4.90;56.54;93636.59;5050664;28;20182;-75
2022/03/27 03:29:14;;;;;;;30.50;18.07;;;;;;;4.86;56.39;93622.53;5049142;28;20291;-75
2022/03/27 03:31:40;;;;;;;25.83;16.93;;;;;;;4.98;56.86;93643.25;5050459;28;20186;-75
2022/03/27 03:34:05;;;;;;;21.63;15.20;;;;;;;4.89;57.36;93642.00;5048918;28;20237;-75
2022/03/27 03:36:31;;;;;;;20.87;15.63;;;;;;;4.94;57.11;93634.38;5050789;28;20186;-76
2022/03/27 03:38:56;;;;;;;19.87;15.37;;;;;;;5.15;56.46;93633.91;5045438;28;20239;-75
2022/03/27 03:41:22;;;;;;;17.33;14.87;;;;;;;5.13;57.62;93632.53;5049789;28;20185;-76
2022/03/27 03:43:47;;;;;;;20.83;15.93;;;;;;;4.95;58.19;93633.34;5050050;28;20226;-75
2022/03/27 03:46:13;;;;;;;18.97;15.67;;;;;;;4.96;57.42;93630.53;5050784;28;20198;-75
2022/03/27 03:48:39;;;;;;;17.90;15.70;;;;;;;5.13;57.66;93650.63;5049791;28;20241;-75
2022/03/27 03:51:05;;;;;;;15.77;14.13;;;;;;;5.12;56.83;93629.13;5050204;28;20201;-75
2022/03/27 03:53:30;;;;;;;16.37;14.63;;;;;;;5.26;57.50;93653.06;5048931;28;20345;-75
2022/03/27 03:55:56;;;;;;;21.57;15.83;;;;;;;5.14;56.97;93634.91;5050312;28;20195;-76
2022/03/27 03:58:21;;;;;;;21.07;15.73;;;;;;;5.09;57.11;93645.09;5041267;28;20213;-75
2022/03/27 04:00:47;;;;;;;22.53;16.53;;;;;;;5.01;57.70;93636.88;5043469;28;20197;-75
2022/03/27 04:03:13;;;;;;;19.00;15.63;;;;;;;5.03;56.78;93645.22;5048852;28;20194;-78
2022/03/27 04:05:39;;;;;;;25.07;17.13;;;;;;;5.07;57.09;93659.28;5049850;28;20202;-75
2022/03/27 04:08:04;;;;;;;21.63;15.43;;;;;;;4.79;57.85;93639.91;5049117;28;20205;-76
2022/03/27 04:10:30;;;;;;;21.40;15.00;;;;;;;4.73;56.91;93640.78;5049182;28;20217;-76
2022/03/27 04:12:56;;;;;;;16.97;15.10;;;;;;;4.85;57.32;93639.06;5048920;28;20189;-75
2022/03/27 04:15:21;;;;;;;18.70;15.50;;;;;;;4.97;57.29;93652.03;5049315;28;20289;-75
2022/03/27 04:17:48;;;;;;;22.87;14.87;;;;;;;5.05;56.42;93632.81;5048147;28;20249;-75
2022/03/27 04:20:14;;;;;;;17.43;15.67;;;;;;;5.09;57.04;93657.28;5047764;28;20234;-76
2022/03/27 04:22:40;;;;;;;26.63;15.27;;;;;;;5.19;56.59;93670.47;5048003;28;20253;-76
2022/03/27 04:25:07;;;;;;;25.63;16.80;;;;;;;5.07;57.91;93680.00;5048545;28;20241;-75
2022/03/27 04:27:32;;;;;;;24.27;16.63;;;;;;;4.79;58.17;93662.44;5047293;28;20209;-76
2022/03/27 04:29:58;;;;;;;25.20;17.17;;;;;;;4.98;58.41;93674.31;5048422;28;20233;-74
2022/03/27 04:32:23;;;;;;;23.77;15.40;;;;;;;4.90;58.11;93685.00;5048587;28;20195;-75
2022/03/27 04:34:50;;;;;;;27.87;16.43;;;;;;;4.96;57.42;93682.28;5048838;28;20245;-75
2022/03/27 04:37:16;;;;;;;27.77;16.13;;;;;;;4.87;57.12;93681.00;5042534;28;20194;-75
2022/03/27 04:39:42;;;;;;;22.73;15.63;;;;;;;4.75;57.42;93672.41;5048025;28;20633;-74
2022/03/27 04:42:09;;;;;;;23.47;15.13;;;;;;;5.09;57.00;93685.75;5048297;28;20193;-76
2022/03/27 04:44:35;;;;;;;24.10;15.97;;;;;;;5.10;57.76;93695.88;5047482;28;20226;-73
2022/03/27 04:47:00;;;;;;;25.53;16.53;;;;;;;5.11;57.76;93691.47;5048070;28;20197;-74
2022/03/27 04:49:26;;;;;;;23.13;15.33;;;;;;;5.29;56.70;93691.44;5048523;28;20321;-74
2022/03/27 04:51:51;;;;;;;21.80;15.30;;;;;;;5.23;57.40;93676.81;5049152;28;20844;-74
2022/03/27 04:54:17;;;;;;;21.10;16.70;;;;;;;5.35;57.27;93703.50;5049068;28;20222;-73
2022/03/27 04:56:42;;;;;;;19.67;15.40;;;;;;;5.47;56.91;93689.59;5047128;28;20186;-73
2022/03/27 04:59:08;;;;;;;18.80;15.07;;;;;;;5.65;55.82;93697.28;5046689;28;20244;-74
2022/03/27 05:01:33;;;;;;;22.67;15.80;;;;;;;5.53;55.28;93693.09;5048154;28;20202;-73
2022/03/27 05:03:58;;;;;;;16.30;14.50;;;;;;;5.59;54.92;93715.50;5048016;28;20279;-73
2022/03/27 05:06:24;;;;;;;21.23;15.43;;;;;;;5.79;53.36;93726.41;5048187;28;20215;-73
2022/03/27 05:08:51;;;;;;;22.60;15.40;;;;;;;5.91;52.95;93716.88;5045623;28;20226;-73
2022/03/27 05:11:17;;;;;;;17.13;14.77;;;;;;;5.83;53.97;93715.41;5048528;28;20193;-73
2022/03/27 05:13:42;;;;;;;16.97;15.20;;;;;;;5.93;53.64;93735.59;5048600;28;20251;-73
2022/03/27 05:16:07;;;;;;;18.20;15.10;;;;;;;6.06;53.35;93732.78;5049078;28;20220;-73
2022/03/27 05:18:33;;;;;;;17.87;14.00;;;;;;;6.29;51.80;93735.41;5047685;28;20276;-74
2022/03/27 05:20:58;;;;;;;23.17;15.87;;;;;;;5.94;53.19;93717.22;5048728;28;20210;-73
2022/03/27 05:23:24;;;;;;;16.57;14.83;;;;;;;6.39;51.68;93728.66;5048769;28;21081;-74
2022/03/27 05:25:50;;;;;;;18.83;16.03;;;;;;;6.29;52.58;93730.22;5048750;28;20197;-74
2022/03/27 05:28:16;;;;;;;20.27;15.70;;;;;;;6.35;52.22;93714.56;5048022;28;20899;-73
2022/03/27 05:30:43;;;;;;;18.13;15.07;;;;;;;6.70;50.41;93732.69;5048730;28;20198;-74
2022/03/27 05:33:08;;;;;;;22.23;14.70;;;;;;;6.63;51.70;93728.66;5047600;28;20198;-74
2022/03/27 05:35:34;;;;;;;18.03;15.40;;;;;;;6.95;50.48;93730.63;5047573;28;20280;-74
2022/03/27 05:38:00;;;;;;;24.57;17.23;;;;;;;6.90;50.16;93712.38;5048783;28;20229;-73
2022/03/27 05:40:27;;;;;;;20.43;16.10;;;;;;;7.05;50.60;93720.44;5047580;28;20232;-73
2022/03/27 05:42:53;;;;;;;21.30;15.03;;;;;;;7.11;50.33;93722.16;5048680;28;20186;-74
2022/03/27 05:45:19;;;;;;;21.40;15.73;;;;;;;7.43;49.05;93720.69;5047736;28;20217;-73
2022/03/27 05:47:45;;;;;;;18.20;14.57;;;;;;;7.52;49.30;93734.88;5048095;28;20194;-73
2022/03/27 05:50:13;;;;;;;19.73;15.63;;;;;;;7.51;49.14;93727.31;5048131;28;20226;-74
2022/03/27 05:52:41;;;;;;;27.60;14.17;;;;;;;7.61;49.24;93743.88;5048756;28;20205;-74
2022/03/27 05:55:07;;;;;;;29.37;15.27;;;;;;;7.58;49.55;93740.97;5047046;28;20233;-74
2022/03/27 05:57:33;;;;;;;19.90;15.83;;;;;;;7.80;48.92;93742.66;5051389;28;20676;-74
2022/03/27 05:59:58;;;;;;;26.97;16.40;;;;;;;7.35;49.29;93746.22;5050526;28;20240;-73
2022/03/27 06:02:23;;;;;;;22.00;15.93;;;;;;;7.66;48.60;93748.38;5050168;28;20217;-74
2022/03/27 06:04:50;;;;;;;24.97;15.93;;;;;;;7.44;48.43;93735.25;5049920;28;20230;-74
2022/03/27 06:07:16;;;;;;;24.93;15.60;;;;;;;7.48;49.38;93727.78;5052002;28;20197;-74
2022/03/27 06:09:41;;;;;;;23.90;17.53;;;;;;;7.63;49.59;93757.44;5051189;28;20915;-74
2022/03/27 06:12:07;;;;;;;23.50;16.43;;;;;;;7.90;47.97;93744.66;5051217;28;20778;-74
2022/03/27 06:14:33;;;;;;;24.00;14.70;;;;;;;8.18;47.16;93742.81;5050628;28;20226;-75
2022/03/27 06:16:59;;;;;;;19.33;16.93;;;;;;;8.13;46.98;93737.50;5050490;28;20206;-73
2022/03/27 06:19:26;;;;;;;22.40;15.87;;;;;;;8.28;46.12;93757.03;5046088;28;20317;-79
2022/03/27 06:21:52;;;;;;;20.30;16.13;;;;;;;8.26;46.07;93746.06;5050728;28;20190;-75
2022/03/27 06:24:18;;;;;;;20.97;14.63;;;;;;;8.14;47.49;93736.47;5050878;28;20352;-75
2022/03/27 06:26:43;;;;;;;21.57;14.93;;;;;;;8.35;45.25;93750.63;5050767;28;20210;-74
2022/03/27 06:29:09;;;;;;;20.43;14.80;;;;;;;8.61;46.00;93749.19;5050804;28;20236;-75
2022/03/27 06:31:38;;;;;;;24.67;16.43;;;;;;;8.83;45.81;93744.81;5050581;28;20279;-75
2022/03/27 06:34:04;;;;;;;18.40;15.37;;;;;;;8.97;44.77;93746.84;5051282;28;20222;-75
2022/03/27 06:36:29;;;;;;;21.63;14.63;;;;;;;8.92;45.89;93753.81;5051080;28;20197;-75
2022/03/27 06:38:55;;;;;;;21.40;15.73;;;;;;;8.86;45.98;93747.75;5051558;28;20241;-72
2022/03/27 06:41:20;;;;;;;20.97;16.13;;;;;;;9.06;44.87;93736.78;5043469;28;20221;-72
2022/03/27 06:43:45;;;;;;;23.33;14.83;;;;;;;9.01;46.02;93757.59;5051098;28;20225;-69
2022/03/27 06:46:16;;;;;;;22.80;17.37;;;;;;;9.20;44.95;93758.84;5049518;28;20194;-71
2022/03/27 06:48:45;;;;;;;29.37;16.57;;;;;;;9.28;45.00;93758.44;5043227;28;20287;-72
2022/03/27 06:51:11;;;;;;;22.00;16.37;;;;;;;9.18;45.28;93763.53;5049990;28;20202;-71
2022/03/27 06:53:36;;;;;;;25.83;16.87;;;;;;;9.30;44.49;93756.38;5049511;28;20298;-72
2022/03/27 06:56:02;;;;;;;25.73;17.33;;;;;;;9.50;43.48;93767.06;5048329;28;20186;-71
2022/03/27 06:58:27;;;;;;;29.73;16.93;;;;;;;9.76;43.87;93774.91;5049498;28;20245;-72
2022/03/27 07:03:37;;;;;;;31.37;16.97;;;;;;;9.86;43.10;93769.03;5048474;28;20284;-70
2022/03/27 07:06:03;;;;;;;29.60;17.80;;;;;;;9.71;43.75;93789.72;5050422;28;20194;-70
2022/03/27 07:08:28;;;;;;;25.60;17.77;;;;;;;9.37;43.04;93762.22;5048074;28;20222;-71
2022/03/27 07:10:55;;;;;;;24.30;16.40;;;;;;;9.69;43.70;93776.16;5050402;28;20182;-71
2022/03/27 07:13:21;;;;;;;27.87;17.53;;;;;;;10.35;41.16;93775.78;5045535;28;20178;-70
2022/03/27 07:15:48;;;;;;;28.17;18.23;;;;;;;10.60;40.71;93778.59;5049111;28;20174;-70
2022/03/27 07:18:14;;;;;;;25.90;17.80;;;;;;;10.60;40.49;93777.81;5046952;28;20244;-71
2022/03/27 07:20:41;;;;;;;24.73;17.50;;;;;;;10.39;41.49;93782.09;5045814;28;20186;-70
2022/03/27 07:23:09;;;;;;;24.20;16.70;;;;;;;10.62;41.59;93781.75;5048443;28;20224;-70
2022/03/27 07:25:36;;;;;;;24.37;17.93;;;;;;;10.87;39.30;93774.09;5045534;28;20201;-71
2022/03/27 07:28:04;;;;;;;20.00;16.60;;;;;;;10.99;39.75;93776.50;5048521;28;20193;-70
2022/03/27 07:30:31;;;;;;;25.93;19.43;;;;;;;11.26;39.56;93788.47;5048582;28;20214;-76
2022/03/27 07:32:57;;;;;;;28.53;18.23;;;;;;;11.15;39.69;93786.81;5049342;28;20779;-73
2022/03/27 07:35:25;;;;;;;29.77;19.47;;;;;;;11.17;40.24;93784.72;5047078;28;20233;-77
2022/03/27 07:37:52;;;;;;;22.43;19.27;;;;;;;11.14;39.42;93776.63;5049278;28;20325;-75
2022/03/27 07:40:18;;;;;;;30.57;18.53;;;;;;;11.44;38.84;93783.84;5049352;28;20230;-75
2022/03/27 07:42:47;;;;;;;27.27;18.87;;;;;;;11.18;40.46;93780.28;5049308;28;20205;-75
2022/03/27 07:45:14;;;;;;;38.20;19.53;;;;;;;11.42;39.31;93775.44;5048831;28;20250;-77
2022/03/27 07:47:40;;;;;;;31.27;19.53;;;;;;;11.50;39.41;93783.59;5048104;28;20181;-75
2022/03/27 07:50:07;;;;;;;28.47;20.03;;;;;;;11.73;39.19;93779.78;5049661;28;20230;-76
2022/03/27 07:52:34;;;;;;;25.43;21.07;;;;;;;11.82;39.87;93775.63;5047789;28;20197;-74
2022/03/27 07:55:00;;;;;;;27.47;18.63;;;;;;;11.86;38.78;93767.00;5045929;28;20250;-76
2022/03/27 07:57:26;;;;;;;29.53;20.00;;;;;;;12.16;37.23;93774.94;5049034;28;20266;-77
2022/03/27 07:59:51;;;;;;;28.40;20.20;;;;;;;12.06;37.52;93787.22;5046627;28;20240;-74
2022/03/27 08:02:18;;;;;;;29.80;19.67;;;;;;;12.48;37.39;93779.97;5047650;28;20198;-74
2022/03/27 08:04:44;;;;;;;26.17;19.30;;;;;;;12.58;37.06;93759.00;5045538;28;20274;-77
2022/03/27 08:07:09;;;;;;;34.00;20.80;;;;;;;12.50;37.74;93768.16;5045760;28;20190;-74
2022/03/27 08:09:35;;;;;;;29.57;20.13;;;;;;;12.68;36.54;93774.72;5046099;28;20220;-74
2022/03/27 08:12:01;;;;;;;28.73;22.47;;;;;;;12.84;35.83;93757.97;5047941;28;20182;-74
2022/03/27 08:14:31;;;;;;;25.80;19.77;;;;;;;12.91;35.87;93777.59;5048057;28;20282;-72
2022/03/27 08:16:57;;;;;;;27.87;18.80;;;;;;;13.01;34.18;93768.19;5047646;28;20192;-75
2022/03/27 08:19:23;;;;;;;26.30;19.27;;;;;;;13.25;33.21;93780.44;5046936;28;20233;-76
2022/03/27 08:21:48;;;;;;;32.73;20.50;;;;;;;13.31;32.71;93782.00;5044414;28;20209;-76
2022/03/27 08:24:14;;;;;;;26.80;20.20;;;;;;;13.39;32.24;93770.97;5047225;28;20268;-73
2022/03/27 08:27:00;;;;;;;25.90;20.40;;;;;;;13.17;31.19;93767.88;5045597;28;20671;-72
2022/03/27 08:29:29;;;;;;;28.47;19.80;;;;;;;13.37;31.44;93777.56;5046653;28;20244;-77
2022/03/27 08:31:55;;;;;;;28.60;19.57;;;;;;;13.52;31.20;93775.66;5045569;28;20218;-74
2022/03/27 08:34:23;;;;;;;24.37;19.13;;;;;;;13.65;31.18;93774.31;5047799;28;20226;-75
2022/03/27 08:36:49;;;;;;;28.30;20.87;;;;;;;13.42;31.40;93765.19;5048638;28;20186;-73
2022/03/27 08:39:15;;;;;;;25.17;18.90;;;;;;;13.43;30.86;93761.50;5047127;28;20242;-72
2022/03/27 08:41:43;;;;;;;28.17;20.57;;;;;;;13.62;31.03;93754.63;5047768;28;20186;-76
2022/03/27 08:44:10;;;;;;;26.13;18.93;;;;;;;13.44;31.79;93763.09;5046987;28;20292;-74
2022/03/27 08:46:36;;;;;;;24.13;20.30;;;;;;;13.61;31.14;93760.16;5048998;28;20194;-73
2022/03/27 08:49:26;;;;;;;29.23;18.37;;;;;;;13.60;30.89;93764.63;5046712;28;20254;-73
2022/03/27 08:52:02;;;;;;;27.33;18.03;;;;;;;13.87;31.44;93751.91;5024034;28;20229;-75
2022/03/27 08:54:43;;;;;;;22.27;18.80;;;;;;;13.91;30.36;93765.28;5047012;28;20256;-75
2022/03/27 08:57:23;;;;;;;30.07;19.73;;;;;;;13.76;30.33;93749.59;5047790;28;20189;-75
2022/03/27 08:59:52;;;;;;;26.67;18.73;;;;;;;13.98;30.46;93753.41;5047055;28;20352;-75
2022/03/27 09:02:19;;;;;;;25.90;18.80;;;;;;;13.99;30.21;93748.97;5042979;28;20230;-75
2022/03/27 09:04:46;;;;;;;24.10;18.53;;;;;;;13.83;30.68;93750.88;5045710;28;20221;-75
2022/03/27 09:07:11;;;;;;;32.23;17.43;;;;;;;14.02;30.61;93751.81;5045469;28;20202;-76
2022/03/27 09:09:37;;;;;;;22.50;19.33;;;;;;;14.16;29.82;93755.41;5046104;28;20244;-75
2022/03/27 09:12:04;;;;;;;27.67;18.20;;;;;;;14.09;30.37;93754.94;5045888;28;20213;-76
2022/03/27 09:14:33;;;;;;;26.20;18.67;;;;;;;14.12;30.36;93743.88;5045657;28;20747;-75
2022/03/27 09:17:02;;;;;;;23.27;18.60;;;;;;;14.11;30.57;93747.56;5046282;28;20194;-74
2022/03/27 09:19:39;;;;;;;25.07;19.00;;;;;;;14.45;30.05;93748.44;5043862;28;20222;-75
2022/03/27 09:22:22;;;;;;;27.83;18.53;;;;;;;14.38;30.27;93744.53;5042288;28;20200;-76
2022/03/27 09:24:56;;;;;;;24.90;18.07;;;;;;;14.15;30.05;93738.09;5044092;28;20313;-80
2022/03/27 09:27:30;;;;;;;27.23;19.33;;;;;;;14.38;29.67;93742.69;5044518;28;20220;-74
2022/03/27 09:30:09;;;;;;;31.07;18.90;;;;;;;14.44;30.56;93738.97;5044534;28;20281;-72
2022/03/27 09:32:36;;;;;;;27.53;20.10;;;;;;;14.40;29.62;93735.31;5050511;28;20244;-74
2022/03/27 09:35:08;;;;;;;26.03;17.73;;;;;;;14.58;29.47;93739.13;5050307;28;20234;-74
2022/03/27 09:37:39;;;;;;;28.20;17.93;;;;;;;14.69;29.25;93734.56;5050639;28;20257;-75
2022/03/27 09:40:08;;;;;;;30.73;18.57;;;;;;;14.69;29.41;93727.47;5048734;28;20226;-73
2022/03/27 09:42:36;;;;;;;27.33;19.23;;;;;;;14.65;29.86;93733.53;5051661;28;20204;-74
2022/03/27 09:45:23;;;;;;;22.03;18.33;;;;;;;14.72;28.92;93741.91;5048921;28;20218;-74
2022/03/27 09:47:56;;;;;;;24.67;18.80;;;;;;;14.75;29.33;93731.63;5051187;28;20249;-75
2022/03/27 09:50:36;;;;;;;23.93;18.20;;;;;;;15.00;28.38;93738.50;5051574;28;20225;-73
2022/03/27 09:53:22;;;;;;;22.03;18.77;;;;;;;14.96;28.30;93734.88;5051148;28;20182;-71
2022/03/27 09:55:53;;;;;;;21.60;18.23;;;;;;;15.04;28.09;93734.25;5051390;28;20232;-71
2022/03/27 09:58:44;;;;;;;22.70;17.23;;;;;;;14.92;27.42;93728.56;5050292;28;20218;-73
2022/03/27 10:01:11;;;;;;;23.50;17.17;;;;;;;14.82;27.73;93726.06;5051172;28;20205;-72
2022/03/27 10:03:57;;;;;;;21.07;16.67;;;;;;;14.81;27.86;93717.38;5051722;28;20248;-71
2022/03/27 10:06:40;;;;;;;21.70;16.83;;;;;;;15.16;27.82;93724.16;5050648;28;20941;-71
2022/03/27 10:09:08;;;;;;;27.10;16.00;;;;;;;15.28;27.92;93735.84;5051489;28;20239;-71
2022/03/27 10:11:34;;;;;;;22.77;17.23;;;;;;;15.32;27.17;93718.44;5051005;28;20190;-72
2022/03/27 10:14:03;;;;;;;20.97;16.17;;;;;;;15.04;27.31;93719.25;5051377;28;20226;-72
2022/03/27 10:16:42;;;;;;;22.70;17.77;;;;;;;15.32;27.96;93709.75;5051163;28;20187;-71
2022/03/27 10:19:33;;;;;;;24.33;15.73;;;;;;;15.17;27.72;93707.28;5050204;28;20297;-73
2022/03/27 10:22:02;;;;;;;22.00;17.17;;;;;;;15.27;27.24;93712.47;5051582;28;20221;-71
2022/03/27 10:24:32;;;;;;;23.63;16.40;;;;;;;15.42;26.62;93699.16;5051279;28;20226;-73
2022/03/27 10:27:02;;;;;;;19.17;14.53;;;;;;;15.60;25.11;93708.91;5050855;28;20197;-72
2022/03/27 10:29:29;;;;;;;16.83;14.90;;;;;;;15.52;24.28;93706.91;5051861;28;20222;-72
2022/03/27 10:31:56;;;;;;;18.70;15.37;;;;;;;15.58;25.18;93698.69;5049307;28;20261;-72
2022/03/27 10:34:23;;;;;;;23.80;14.37;;;;;;;15.66;23.77;93705.94;5049357;28;20225;-71
2022/03/27 10:37:19;;;;;;;26.03;14.97;;;;;;;15.50;24.46;93698.53;5051394;28;20208;-73
2022/03/27 10:40:09;;;;;;;18.90;14.97;;;;;;;15.73;24.60;93690.59;5049610;28;20694;-71
2022/03/27 10:42:54;;;;;;;20.10;15.13;;;;;;;15.87;25.85;93698.59;5050471;28;20281;-72
2022/03/27 10:45:21;;;;;;;20.07;14.10;;;;;;;16.10;24.88;93689.81;5042050;28;20217;-72
2022/03/27 10:48:14;;;;;;;21.67;15.37;;;;;;;15.99;24.41;93683.13;5050165;28;20182;-72
2022/03/27 10:50:57;;;;;;;19.90;14.77;;;;;;;15.78;24.45;93679.22;5050532;28;20253;-72
2022/03/27 10:53:25;;;;;;;27.03;15.13;;;;;;;15.94;24.59;93677.94;5050196;28;20197;-72
2022/03/27 10:55:52;;;;;;;24.90;15.03;;;;;;;16.06;24.02;93680.94;5050028;28;20246;-72
2022/03/27 10:58:35;;;;;;;20.07;14.53;;;;;;;16.14;24.12;93677.63;5050530;28;20927;-72
2022/03/27 11:01:34;;;;;;;16.10;13.57;;;;;;;16.26;24.41;93675.38;5051191;28;20190;-72
2022/03/27 11:04:10;;;;;;;18.10;14.33;;;;;;;16.31;24.26;93670.00;5037304;28;20237;-71
2022/03/27 11:06:39;;;;;;;20.47;15.57;;;;;;;16.30;24.14;93673.72;5049981;28;20216;-71
2022/03/27 11:09:08;;;;;;;23.50;16.67;;;;;;;16.26;24.93;93675.38;5049996;28;20252;-72
2022/03/27 11:11:43;;;;;;;19.20;15.10;;;;;;;16.09;24.08;93670.59;5050740;28;20253;-72
2022/03/27 11:14:09;;;;;;;20.90;15.40;;;;;;;16.24;24.25;93671.44;5049649;28;20225;-72
2022/03/27 11:17:04;;;;;;;20.67;16.30;;;;;;;16.30;23.84;93673.72;5050356;28;20186;-72
2022/03/27 11:19:41;;;;;;;21.93;16.23;;;;;;;16.21;23.41;93664.09;5049372;28;20230;-72
2022/03/27 11:22:07;;;;;;;19.83;15.40;;;;;;;16.29;23.21;93656.34;5050376;28;20179;-72
2022/03/27 11:24:32;;;;;;;18.33;15.37;;;;;;;16.45;23.22;93659.53;5048695;28;20279;-72
2022/03/27 11:26:57;;;;;;;21.23;15.73;;;;;;;16.41;23.60;93659.31;5048819;28;20220;-73
2022/03/27 11:29:24;;;;;;;19.50;15.13;;;;;;;16.39;24.08;93653.53;5050354;28;20249;-71
2022/03/27 11:32:10;;;;;;;19.73;16.07;;;;;;;16.35;24.07;93618.28;5049084;28;20982;-72